createdAt,value
2023-03-03T00:02:22.864Z,17.13
2023-03-03T00:04:54.552Z,17.63
2023-03-03T00:07:25.132Z,16.92
2023-03-03T00:10:00.623Z,18.13
2023-03-03T00:12:52.949Z,18.50
2023-03-03T00:15:31.837Z,17.02
2023-03-03T00:18:30.235Z,17.85
2023-03-03T00:21:07.529Z,18.80
2023-03-03T00:23:47.383Z,18.35
2023-03-03T00:26:24.944Z,24.60
2023-03-03T00:29:07.493Z,31.23
2023-03-03T00:31:40.845Z,27.83
2023-03-03T00:34:22.062Z,18.52
2023-03-03T00:36:58.273Z,19.25
2023-03-03T00:39:43.510Z,17.67
2023-03-03T00:42:18.533Z,18.83
2023-03-03T00:45:00.538Z,18.33
2023-03-03T00:47:44.663Z,17.88
2023-03-03T00:50:39.682Z,17.58
2023-03-03T00:53:20.523Z,18.52
2023-03-03T00:55:51.869Z,18.17
2023-03-03T00:58:29.605Z,18.80
2023-03-03T01:01:02.719Z,17.42
2023-03-03T01:03:42.749Z,17.98
2023-03-03T01:06:14.462Z,17.75
2023-03-03T01:08:47.887Z,17.13
2023-03-03T01:11:25.316Z,18.73
2023-03-03T01:14:02.934Z,18.33
2023-03-03T01:16:42.728Z,19.33
2023-03-03T01:19:20.374Z,18.85
2023-03-03T01:21:54.239Z,20.02
2023-03-03T01:24:25.788Z,18.60
2023-03-03T01:26:55.518Z,19.58
2023-03-03T01:29:29.498Z,18.20
2023-03-03T01:31:59.093Z,17.90
2023-03-03T01:34:30.416Z,18.58
2023-03-03T01:37:09.177Z,18.73
2023-03-03T01:39:39.398Z,19.23
2023-03-03T01:42:10.568Z,18.10
2023-03-03T01:44:40.653Z,18.45
2023-03-03T01:47:29.757Z,19.20
2023-03-03T01:50:13.856Z,19.60
2023-03-03T01:52:50.117Z,18.50
2023-03-03T01:55:30.578Z,18.48
2023-03-03T01:58:12.081Z,36.25
2023-03-03T02:00:58.271Z,25.20
2023-03-03T02:03:27.226Z,19.35
2023-03-03T02:06:08.052Z,19.38
2023-03-03T02:08:58.486Z,18.35
2023-03-03T02:11:44.562Z,18.17
2023-03-03T02:14:16.141Z,18.77
2023-03-03T02:16:45.063Z,19.55
2023-03-03T02:19:41.871Z,19.75
2023-03-03T02:22:16.732Z,19.40
2023-03-03T02:25:00.971Z,13.98
2023-03-03T02:27:39.601Z,19.65
2023-03-03T02:30:23.897Z,20.60
2023-03-03T02:33:11.099Z,20.73
2023-03-03T02:35:42.498Z,20.67
2023-03-03T02:38:50.626Z,20.25
2023-03-03T02:41:38.995Z,22.13
2023-03-03T02:44:10.805Z,20.67
2023-03-03T02:46:47.314Z,22.17
2023-03-03T02:49:18.954Z,22.30
2023-03-03T02:51:49.215Z,21.73
2023-03-03T02:57:11.919Z,22.30
2023-03-03T03:02:19.604Z,22.27
2023-03-03T03:04:53.031Z,21.40
2023-03-03T03:07:24.144Z,21.42
2023-03-03T03:09:55.912Z,22.13
2023-03-03T03:12:31.626Z,21.58
2023-03-03T03:15:03.573Z,20.38
2023-03-03T03:20:22.510Z,19.58
2023-03-03T03:22:54.315Z,21.13
2023-03-03T03:25:25.571Z,21.00
2023-03-03T03:27:57.860Z,19.88
2023-03-03T03:30:30.737Z,20.43
2023-03-03T03:33:00.802Z,20.23
2023-03-03T03:35:29.212Z,20.58
2023-03-03T03:37:58.634Z,29.02
2023-03-03T03:40:28.741Z,31.40
2023-03-03T03:45:46.504Z,21.70
2023-03-03T03:48:27.802Z,19.60
2023-03-03T03:50:57.688Z,19.35
2023-03-03T03:53:30.852Z,19.38
2023-03-03T03:56:01.066Z,19.38
2023-03-03T03:58:33.892Z,19.17
2023-03-03T04:01:10.049Z,18.67
2023-03-03T04:03:52.585Z,19.33
2023-03-03T04:06:33.243Z,18.92
2023-03-03T04:09:03.949Z,18.00
2023-03-03T04:11:34.892Z,19.48
2023-03-03T04:14:06.705Z,19.50
2023-03-03T04:16:38.075Z,18.90
2023-03-03T04:19:08.161Z,20.35
2023-03-03T04:21:42.863Z,19.67
2023-03-03T04:24:14.539Z,19.97
2023-03-03T04:26:45.637Z,19.95
2023-03-03T04:29:14.588Z,20.58
2023-03-03T04:31:46.657Z,20.25
2023-03-03T04:34:22.033Z,20.30
2023-03-03T04:37:13.297Z,19.52
2023-03-03T04:39:43.780Z,20.00
2023-03-03T04:42:26.746Z,21.88
2023-03-03T04:45:00.207Z,19.40
2023-03-03T04:50:09.757Z,20.50
2023-03-03T04:52:43.371Z,22.10
2023-03-03T04:55:27.963Z,20.30
2023-03-03T04:58:05.478Z,19.30
2023-03-03T05:00:36.812Z,20.00
2023-03-03T05:03:14.944Z,20.48
2023-03-03T05:05:45.447Z,18.88
2023-03-03T05:08:26.882Z,22.10
2023-03-03T05:10:55.809Z,19.33
2023-03-03T05:13:41.753Z,20.60
2023-03-03T05:19:01.093Z,20.83
2023-03-03T05:21:39.540Z,21.52
2023-03-03T05:24:15.397Z,22.15
2023-03-03T05:26:50.737Z,22.33
2023-03-03T05:29:34.120Z,19.63
2023-03-03T05:32:05.923Z,20.42
2023-03-03T05:34:35.334Z,21.40
2023-03-03T05:37:09.577Z,20.85
2023-03-03T05:39:39.815Z,24.15
2023-03-03T05:42:11.214Z,23.48
2023-03-03T05:44:40.814Z,20.85
2023-03-03T05:47:19.503Z,21.98
2023-03-03T05:49:53.129Z,20.30
2023-03-03T05:52:28.317Z,22.83
2023-03-03T05:54:59.364Z,27.48
2023-03-03T05:57:33.144Z,25.13
2023-03-03T06:00:02.298Z,21.60
2023-03-03T06:02:42.208Z,19.73
2023-03-03T06:05:13.776Z,20.40
2023-03-03T06:07:51.258Z,20.27
2023-03-03T06:10:24.157Z,20.83
2023-03-03T06:12:59.773Z,20.65
2023-03-03T06:15:29.819Z,19.23
2023-03-03T06:18:02.177Z,20.65
2023-03-03T06:20:35.092Z,19.98
2023-03-03T06:23:03.222Z,21.27
2023-03-03T06:25:36.709Z,20.27
2023-03-03T06:28:04.089Z,19.27
2023-03-03T06:30:36.841Z,19.80
2023-03-03T06:33:06.100Z,20.33
2023-03-03T06:35:36.562Z,20.30
2023-03-03T06:38:08.176Z,19.85
2023-03-03T06:40:38.922Z,21.23
2023-03-03T06:43:15.146Z,20.08
2023-03-03T06:45:47.618Z,19.63
2023-03-03T06:48:17.981Z,19.98
2023-03-03T06:50:49.110Z,20.80
2023-03-03T06:53:25.168Z,21.10
2023-03-03T06:56:00.876Z,20.42
2023-03-03T06:58:31.562Z,21.27
2023-03-03T07:01:20.744Z,19.80
2023-03-03T07:03:50.680Z,19.55
2023-03-03T07:06:30.988Z,18.85
2023-03-03T07:08:59.740Z,20.45
2023-03-03T07:11:45.039Z,17.17
2023-03-03T07:14:19.924Z,18.30
2023-03-03T07:16:59.657Z,18.60
2023-03-03T07:19:43.336Z,17.95
2023-03-03T07:22:40.900Z,17.15
2023-03-03T07:27:49.706Z,17.40
2023-03-03T07:30:32.032Z,16.23
2023-03-03T07:33:11.445Z,15.82
2023-03-03T07:35:44.493Z,15.18
2023-03-03T07:38:43.594Z,17.50
2023-03-03T07:41:23.949Z,15.13
2023-03-03T07:44:18.144Z,18.38
2023-03-03T07:46:49.449Z,16.15
2023-03-03T07:49:37.540Z,16.83
2023-03-03T07:52:30.460Z,16.45
2023-03-03T07:55:21.431Z,15.50
2023-03-03T07:57:53.078Z,16.13
2023-03-03T08:00:30.960Z,16.40
2023-03-03T08:03:12.458Z,17.00
2023-03-03T08:05:44.502Z,17.15
2023-03-03T08:08:52.747Z,15.88
2023-03-03T08:11:22.494Z,17.23
2023-03-03T08:13:52.573Z,16.67
2023-03-03T08:16:44.809Z,16.60
2023-03-03T08:19:22.814Z,19.42
2023-03-03T08:22:02.660Z,18.30
2023-03-03T08:24:30.640Z,16.75
2023-03-03T08:27:02.870Z,18.13
2023-03-03T08:29:57.601Z,18.17
2023-03-03T08:32:26.731Z,17.02
2023-03-03T08:34:56.001Z,17.27
2023-03-03T08:37:25.377Z,19.17
2023-03-03T08:39:56.778Z,17.75
2023-03-03T08:42:27.621Z,14.80
2023-03-03T08:45:17.426Z,17.77
2023-03-03T08:47:47.464Z,16.42
2023-03-03T08:50:16.313Z,17.80
2023-03-03T08:52:44.794Z,16.73
2023-03-03T08:55:14.569Z,15.13
2023-03-03T08:57:46.703Z,19.60
2023-03-03T09:00:28.290Z,16.30
2023-03-03T09:03:02.332Z,16.10
2023-03-03T09:05:32.320Z,16.08
2023-03-03T09:08:03.088Z,14.95
2023-03-03T09:10:33.129Z,16.27
2023-03-03T09:13:22.549Z,16.95
2023-03-03T09:15:56.649Z,17.05
2023-03-03T09:18:44.468Z,15.93
2023-03-03T09:21:39.003Z,15.43
2023-03-03T09:24:29.380Z,16.05
2023-03-03T09:27:01.916Z,16.38
2023-03-03T09:29:38.075Z,14.75
2023-03-03T09:32:47.356Z,15.15
2023-03-03T09:35:42.538Z,16.75
2023-03-03T09:38:32.808Z,16.48
2023-03-03T09:41:04.054Z,14.40
2023-03-03T09:44:18.904Z,14.45
2023-03-03T09:47:24.645Z,14.93
2023-03-03T09:50:47.362Z,15.07
2023-03-03T09:53:46.433Z,14.70
2023-03-03T09:56:45.465Z,14.98
2023-03-03T09:59:49.265Z,17.35
2023-03-03T10:02:57.977Z,19.10
2023-03-03T10:05:53.049Z,19.23
2023-03-03T10:08:37.446Z,18.05
2023-03-03T10:11:45.774Z,19.13
2023-03-03T10:14:41.589Z,20.92
2023-03-03T10:17:34.126Z,20.77
2023-03-03T10:20:34.783Z,19.40
2023-03-03T10:23:12.499Z,20.88
2023-03-03T10:25:44.840Z,20.73
2023-03-03T10:28:48.526Z,23.58
2023-03-03T10:31:41.229Z,25.90
2023-03-03T10:34:51.076Z,23.85
2023-03-03T10:37:59.086Z,27.13
2023-03-03T10:41:00.247Z,21.25
2023-03-03T10:43:48.704Z,29.15
2023-03-03T10:46:57.684Z,24.02
2023-03-03T10:49:38.444Z,27.08
2023-03-03T10:52:32.853Z,28.40
2023-03-03T10:55:46.315Z,29.52
2023-03-03T10:58:58.108Z,26.73
2023-03-03T11:01:46.606Z,27.20
2023-03-03T11:04:42.990Z,27.13
2023-03-03T11:07:34.635Z,28.15
2023-03-03T11:10:59.624Z,27.95
2023-03-03T11:14:00.977Z,27.40
2023-03-03T11:17:10.125Z,28.45
2023-03-03T11:20:21.502Z,27.88
2023-03-03T11:23:20.398Z,26.27
2023-03-03T11:26:27.477Z,23.95
2023-03-03T11:29:28.716Z,30.00
2023-03-03T11:32:44.583Z,22.15
2023-03-03T11:38:15.143Z,22.08
2023-03-03T11:41:05.998Z,20.30
2023-03-03T11:44:25.348Z,21.02
2023-03-03T11:47:24.060Z,23.33
2023-03-03T11:50:22.348Z,22.27
2023-03-03T11:53:18.027Z,21.00
2023-03-03T11:56:04.956Z,28.08
2023-03-03T11:58:59.011Z,24.33
2023-03-03T12:02:04.426Z,21.60
2023-03-03T12:05:10.535Z,21.10
2023-03-03T12:08:09.372Z,21.88
2023-03-03T12:11:10.713Z,19.98
2023-03-03T12:14:08.076Z,18.88
2023-03-03T12:17:23.631Z,17.88
2023-03-03T12:23:16.131Z,20.45
2023-03-03T12:26:27.929Z,22.52
2023-03-03T12:29:27.937Z,21.65
2023-03-03T12:32:00.756Z,21.08
2023-03-03T12:34:38.636Z,24.38
2023-03-03T12:37:30.550Z,22.83
2023-03-03T12:40:41.406Z,23.48
2023-03-03T12:43:51.721Z,24.58
2023-03-03T12:46:53.459Z,22.17
2023-03-03T12:49:44.083Z,23.23
2023-03-03T12:52:53.149Z,22.17
2023-03-03T12:55:56.286Z,22.92
2023-03-03T12:58:48.469Z,22.60
2023-03-03T13:01:34.390Z,21.42
2023-03-03T13:04:12.031Z,21.85
2023-03-03T13:06:46.978Z,20.88
2023-03-03T13:09:59.372Z,21.70
2023-03-03T13:12:49.766Z,20.08
2023-03-03T13:15:34.859Z,20.65
2023-03-03T13:18:26.097Z,20.42
2023-03-03T13:22:03.237Z,19.48
2023-03-03T13:24:57.947Z,20.40
2023-03-03T13:27:52.176Z,19.88
2023-03-03T13:30:30.554Z,20.88
2023-03-03T13:33:09.620Z,22.58
2023-03-03T13:35:47.104Z,20.60
2023-03-03T13:39:06.843Z,19.15
2023-03-03T13:42:25.154Z,20.23
2023-03-03T13:44:56.826Z,19.20
2023-03-03T13:48:14.302Z,19.45
2023-03-03T13:50:56.708Z,20.55
2023-03-03T13:53:56.150Z,19.42
2023-03-03T13:57:10.778Z,21.48
2023-03-03T13:59:59.735Z,21.27
2023-03-03T14:03:06.437Z,24.42
2023-03-03T14:06:01.429Z,25.42
2023-03-03T14:09:27.199Z,26.35
2023-03-03T14:12:27.437Z,25.25
2023-03-03T14:15:20.707Z,29.48
2023-03-03T14:18:28.774Z,29.10
2023-03-03T14:21:07.551Z,32.10
2023-03-03T14:24:39.875Z,32.35
2023-03-03T14:27:54.762Z,29.90
2023-03-03T14:30:38.219Z,30.67
2023-03-03T14:33:14.752Z,30.52
2023-03-03T14:35:50.610Z,33.17
2023-03-03T14:38:25.235Z,33.03
2023-03-03T14:41:22.189Z,32.63
2023-03-03T14:43:58.486Z,32.67
2023-03-03T14:46:42.286Z,34.25
2023-03-03T14:49:24.820Z,34.13
2023-03-03T14:52:05.805Z,33.88
2023-03-03T14:54:42.456Z,34.80
2023-03-03T14:57:26.897Z,33.13
2023-03-03T15:00:21.516Z,34.17
2023-03-03T15:03:37.658Z,35.83
2023-03-03T15:06:48.605Z,34.85
2023-03-03T15:09:30.233Z,34.92
2023-03-03T15:12:03.925Z,34.72
2023-03-03T15:17:30.011Z,32.80
2023-03-03T15:20:20.265Z,35.45
2023-03-03T15:23:28.850Z,35.17
2023-03-03T15:29:45.349Z,33.28
2023-03-03T15:32:50.569Z,35.40
2023-03-03T15:35:50.526Z,39.85
2023-03-03T15:38:56.521Z,40.97
2023-03-03T15:42:04.221Z,40.63
2023-03-03T15:45:34.513Z,42.40
2023-03-03T15:48:35.096Z,45.03
2023-03-03T15:52:02.534Z,47.28
2023-03-03T15:55:16.445Z,45.47
2023-03-03T15:57:48.228Z,49.00
2023-03-03T16:03:58.545Z,45.65
2023-03-03T16:06:45.887Z,47.42
2023-03-03T16:09:59.758Z,48.25
2023-03-03T16:13:28.058Z,49.67
2023-03-03T16:16:42.204Z,48.92
2023-03-03T16:19:47.653Z,51.20
2023-03-03T16:22:32.545Z,51.25
2023-03-03T16:25:13.985Z,49.15
2023-03-03T16:28:18.822Z,49.33
2023-03-03T16:31:25.437Z,35.42
2023-03-03T16:37:03.280Z,50.22
2023-03-03T16:39:59.125Z,50.28
2023-03-03T16:42:35.863Z,50.97
2023-03-03T16:45:25.788Z,54.75
2023-03-03T16:48:21.398Z,55.58
2023-03-03T16:51:26.556Z,54.28
2023-03-03T16:54:29.850Z,53.75
2023-03-03T16:57:08.162Z,53.78
2023-03-03T17:00:19.336Z,52.05
2023-03-03T17:03:26.189Z,53.38
2023-03-03T17:06:18.974Z,55.70
2023-03-03T17:09:32.600Z,53.10
2023-03-03T17:12:42.061Z,52.40
2023-03-03T17:15:23.521Z,53.22
2023-03-03T17:17:57.884Z,54.05
2023-03-03T17:20:49.396Z,51.20
2023-03-03T17:23:51.493Z,54.88
2023-03-03T17:27:00.434Z,55.90
2023-03-03T17:30:02.974Z,54.97
2023-03-03T17:32:53.950Z,52.92
2023-03-03T17:36:01.122Z,55.92
2023-03-03T17:39:21.588Z,55.17
2023-03-03T17:42:20.157Z,54.85
2023-03-03T17:45:17.075Z,54.47
2023-03-03T17:48:08.008Z,56.10
2023-03-03T17:50:42.859Z,54.47
2023-03-03T17:53:43.527Z,58.30
2023-03-03T17:56:35.407Z,60.65
2023-03-03T17:59:39.505Z,58.80
2023-03-03T18:02:46.306Z,64.85
2023-03-03T18:05:52.004Z,65.63
2023-03-03T18:09:04.905Z,81.35
2023-03-03T18:11:57.151Z,81.40
2023-03-03T18:15:00.786Z,68.13
2023-03-03T18:18:09.637Z,61.80
2023-03-03T18:21:08.664Z,69.30
2023-03-03T18:23:44.390Z,68.70
2023-03-03T18:26:38.602Z,70.30
2023-03-03T18:29:18.247Z,72.78
2023-03-03T18:32:23.888Z,68.00
2023-03-03T18:35:32.397Z,65.63
2023-03-03T18:38:24.960Z,59.40
2023-03-03T18:40:59.554Z,54.80
2023-03-03T18:43:46.954Z,53.38
2023-03-03T18:46:32.882Z,51.33
2023-03-03T18:49:14.089Z,52.53
2023-03-03T18:51:54.758Z,50.33
2023-03-03T18:54:34.328Z,52.30
2023-03-03T18:57:21.846Z,49.08
2023-03-03T18:59:59.399Z,51.30
2023-03-03T19:02:46.620Z,50.95
2023-03-03T19:05:25.854Z,50.75
2023-03-03T19:08:21.045Z,48.55
2023-03-03T19:13:43.391Z,46.53
2023-03-03T19:16:30.614Z,47.47
2023-03-03T19:19:18.674Z,48.25
2023-03-03T19:22:23.949Z,49.97
2023-03-03T19:25:19.916Z,50.08
2023-03-03T19:28:11.281Z,53.58
2023-03-03T19:30:53.415Z,53.42
2023-03-03T19:33:56.493Z,49.08
2023-03-03T19:36:43.483Z,53.15
2023-03-03T19:40:09.568Z,53.03
2023-03-03T19:43:01.670Z,48.55
2023-03-03T19:46:04.775Z,49.47
2023-03-03T19:48:41.232Z,51.33
2023-03-03T19:51:37.829Z,48.85
2023-03-03T19:54:45.827Z,53.00
2023-03-03T19:57:35.434Z,51.35
2023-03-03T20:00:24.218Z,51.03
2023-03-03T20:03:01.507Z,51.08
2023-03-03T20:05:46.530Z,52.83
2023-03-03T20:08:28.091Z,51.72
2023-03-03T20:11:13.188Z,52.13
2023-03-03T20:13:55.271Z,56.38
2023-03-03T20:16:48.238Z,53.00
2023-03-03T20:19:22.838Z,53.45
2023-03-03T20:22:17.862Z,55.60
2023-03-03T20:25:24.427Z,55.70
2023-03-03T20:28:35.628Z,56.97
2023-03-03T20:31:56.377Z,55.38
2023-03-03T20:34:42.177Z,54.03
2023-03-03T20:37:41.677Z,53.00
2023-03-03T20:40:30.187Z,52.67
2023-03-03T20:43:44.930Z,54.67
2023-03-03T20:46:26.680Z,55.35
2023-03-03T20:49:20.184Z,55.85
2023-03-03T20:52:29.888Z,56.33
2023-03-03T20:55:54.357Z,56.72
2023-03-03T20:58:48.802Z,54.55
2023-03-03T21:01:33.222Z,56.63
2023-03-03T21:04:34.100Z,51.78
2023-03-03T21:07:04.960Z,58.35
2023-03-03T21:09:41.504Z,54.38
2023-03-03T21:12:36.393Z,52.75
2023-03-03T21:15:29.077Z,51.72
2023-03-03T21:20:50.844Z,53.90
2023-03-03T21:23:25.233Z,54.50
2023-03-03T21:25:55.972Z,55.38
2023-03-03T21:28:34.533Z,53.53
2023-03-03T21:31:21.275Z,51.75
2023-03-03T21:34:22.547Z,52.58
2023-03-03T21:36:54.595Z,50.67
2023-03-03T21:39:44.808Z,55.40
2023-03-03T21:42:21.917Z,50.35
2023-03-03T21:44:55.039Z,48.83
2023-03-03T21:47:41.424Z,51.60
2023-03-03T21:50:15.029Z,51.00
2023-03-03T21:52:44.615Z,50.22
2023-03-03T21:55:21.599Z,51.67
2023-03-03T21:58:08.521Z,54.15
2023-03-03T22:00:42.063Z,55.15
2023-03-03T22:03:13.982Z,35.92
2023-03-03T22:05:46.226Z,52.88
2023-03-03T22:08:23.410Z,52.10
2023-03-03T22:10:58.310Z,52.35
2023-03-03T22:13:28.523Z,54.45
2023-03-03T22:16:03.075Z,50.90
2023-03-03T22:18:32.367Z,49.50
2023-03-03T22:21:09.918Z,52.70
2023-03-03T22:23:41.622Z,51.97
2023-03-03T22:26:26.259Z,50.00
2023-03-03T22:28:59.092Z,52.90
2023-03-03T22:31:34.923Z,48.20
2023-03-03T22:34:07.555Z,48.40
2023-03-03T22:36:39.879Z,48.63
2023-03-03T22:39:13.451Z,46.20
2023-03-03T22:41:47.704Z,48.75
2023-03-03T22:44:16.372Z,49.30
2023-03-03T22:46:46.433Z,48.40
2023-03-03T22:49:18.598Z,47.85
2023-03-03T22:51:51.075Z,47.15
2023-03-03T22:54:24.254Z,47.63
2023-03-03T22:56:55.411Z,48.72
2023-03-03T23:01:58.190Z,43.08
2023-03-03T23:04:27.827Z,42.53
2023-03-03T23:07:00.867Z,45.00
2023-03-03T23:09:38.024Z,48.42
2023-03-03T23:12:17.678Z,33.20
2023-03-03T23:14:47.929Z,46.88
2023-03-03T23:17:20.538Z,49.00
2023-03-03T23:19:54.579Z,46.60
2023-03-03T23:22:30.306Z,45.13
2023-03-03T23:25:09.006Z,47.28
2023-03-03T23:27:41.481Z,43.70
2023-03-03T23:30:16.727Z,28.95
2023-03-03T23:32:47.249Z,39.13
2023-03-03T23:35:22.516Z,37.83
2023-03-03T23:37:54.330Z,39.80
2023-03-03T23:40:23.125Z,40.28
2023-03-03T23:42:55.897Z,43.63
2023-03-03T23:45:28.873Z,41.00
2023-03-03T23:48:02.352Z,44.40
2023-03-03T23:50:35.570Z,44.67
2023-03-03T23:53:20.721Z,44.50
2023-03-03T23:55:52.740Z,40.05
2023-03-03T23:58:20.596Z,40.10
